CCA4316 ZJHK-ZUUU
Flight info
| Callsign | CCA4316 |
|---|---|
| Flight time | 2h 2m |
| Altitude | 34100 |
| Route | AGTEL9XD AGTEL W71 LH R339 UVUNO/K0856S1010 DCT IDEPO/K0859S1040 DCT KWE DCT SUMUN DCT BIPIP W179 RIRKI W232 PAMLO W25 WLY W179 IGNAK IGNAK9L |
| Aircraft | A21N/M-SDE3FGHIRWY/LB1 |
Departure
| Time | 2026-04-28 13:48 |
|---|---|
| Airport | Haikou Meilan International Airport (ZJHK) |
Arrival
| Time | 2026-04-28 15:50 |
|---|---|
| Airport | Chengdu Shuangliu International Airport (ZUUU) |
| Time | Latitude | Longitude | Altitude | Speed | Heading |
|---|---|---|---|---|---|
| 2026-04-28 13:42 | 19.93879 | 110.45967 | 78 ft | 0 kts | 326° |
| 2026-04-28 13:43 | 19.93883 | 110.45964 | 78 ft | 3 kts | 321° |
| 2026-04-28 13:43 | 19.93898 | 110.45900 | 79 ft | 14 kts | 270° |
| 2026-04-28 13:43 | 19.93898 | 110.45754 | 77 ft | 22 kts | 270° |
| 2026-04-28 13:43 | 19.93892 | 110.45592 | 74 ft | 19 kts | 243° |
| 2026-04-28 13:44 | 19.93783 | 110.45567 | 74 ft | 15 kts | 179° |
| 2026-04-28 13:44 | 19.93732 | 110.45485 | 72 ft | 17 kts | 269° |
| 2026-04-28 13:44 | 19.93731 | 110.45331 | 71 ft | 23 kts | 269° |
| 2026-04-28 13:44 | 19.93730 | 110.45145 | 71 ft | 24 kts | 269° |
| 2026-04-28 13:45 | 19.93746 | 110.45003 | 71 ft | 9 kts | 336° |
| 2026-04-28 13:45 | 19.93841 | 110.44990 | 71 ft | 23 kts | 359° |
| 2026-04-28 13:45 | 19.94005 | 110.44989 | 71 ft | 22 kts | 359° |
| 2026-04-28 13:45 | 19.94183 | 110.44988 | 71 ft | 31 kts | 359° |
| 2026-04-28 13:46 | 19.94418 | 110.44988 | 68 ft | 33 kts | 360° |
| 2026-04-28 13:46 | 19.94651 | 110.44987 | 65 ft | 33 kts | 360° |
| 2026-04-28 13:46 | 19.94889 | 110.44986 | 61 ft | 33 kts | 360° |
| 2026-04-28 13:46 | 19.95118 | 110.44985 | 58 ft | 31 kts | 360° |
| 2026-04-28 13:47 | 19.95318 | 110.44984 | 58 ft | 16 kts | 4° |
| 2026-04-28 13:47 | 19.95371 | 110.45060 | 58 ft | 3 kts | 89° |
| 2026-04-28 13:47 | 19.95372 | 110.45077 | 58 ft | 15 kts | 89° |
| 2026-04-28 13:47 | 19.95373 | 110.45437 | 63 ft | 79 kts | 90° |
| 2026-04-28 13:48 | 19.95375 | 110.46231 | 58 ft | 134 kts | 90° |
| 2026-04-28 13:48 | 19.95375 | 110.47398 | 124 ft | 169 kts | 90° |
| 2026-04-28 13:48 | 19.95386 | 110.48614 | 641 ft | 164 kts | 85° |
| 2026-04-28 13:48 | 19.95876 | 110.49664 | 1155 ft | 167 kts | 38° |
| 2026-04-28 13:49 | 19.96992 | 110.50022 | 1527 ft | 174 kts | 352° |
| 2026-04-28 13:49 | 19.98165 | 110.49670 | 1866 ft | 180 kts | 334° |
| 2026-04-28 13:49 | 19.99350 | 110.49088 | 2149 ft | 193 kts | 332° |
| 2026-04-28 13:49 | 20.00600 | 110.48461 | 2429 ft | 206 kts | 333° |
| 2026-04-28 13:50 | 20.01964 | 110.47816 | 2713 ft | 221 kts | 335° |
| 2026-04-28 13:50 | 20.03429 | 110.47157 | 2994 ft | 236 kts | 335° |
| 2026-04-28 13:50 | 20.05026 | 110.46458 | 3216 ft | 255 kts | 336° |
| 2026-04-28 13:50 | 20.06687 | 110.45742 | 3704 ft | 263 kts | 336° |
| 2026-04-28 13:51 | 20.08404 | 110.45012 | 4376 ft | 264 kts | 336° |
| 2026-04-28 13:51 | 20.10109 | 110.44287 | 5041 ft | 264 kts | 336° |
| 2026-04-28 13:51 | 20.11811 | 110.43562 | 5679 ft | 265 kts | 335° |
| 2026-04-28 13:51 | 20.13538 | 110.42827 | 6302 ft | 265 kts | 335° |
| 2026-04-28 13:52 | 20.15237 | 110.42104 | 6893 ft | 267 kts | 335° |
| 2026-04-28 13:52 | 20.16959 | 110.41369 | 7472 ft | 268 kts | 335° |
| 2026-04-28 13:52 | 20.18700 | 110.40624 | 8034 ft | 270 kts | 335° |
| 2026-04-28 13:52 | 20.20444 | 110.39880 | 8563 ft | 273 kts | 335° |
| 2026-04-28 13:53 | 20.22216 | 110.39123 | 9087 ft | 275 kts | 335° |
| 2026-04-28 13:53 | 20.24003 | 110.38361 | 9604 ft | 277 kts | 335° |
| 2026-04-28 13:53 | 20.25808 | 110.37631 | 10105 ft | 280 kts | 338° |
| 2026-04-28 13:53 | 20.27701 | 110.36967 | 10431 ft | 290 kts | 339° |
| 2026-04-28 13:54 | 20.29662 | 110.36294 | 10664 ft | 303 kts | 339° |
| 2026-04-28 13:54 | 20.31715 | 110.35590 | 10892 ft | 316 kts | 339° |
| 2026-04-28 13:54 | 20.33875 | 110.34852 | 11114 ft | 329 kts | 339° |
| 2026-04-28 13:54 | 20.36079 | 110.34096 | 11330 ft | 341 kts | 339° |
| 2026-04-28 13:55 | 20.38388 | 110.33303 | 11538 ft | 353 kts | 339° |
| 2026-04-28 13:55 | 20.40792 | 110.32478 | 11745 ft | 365 kts | 339° |
| 2026-04-28 13:55 | 20.43232 | 110.31641 | 11939 ft | 376 kts | 339° |
| 2026-04-28 13:55 | 20.45752 | 110.30775 | 12124 ft | 386 kts | 339° |
| 2026-04-28 13:56 | 20.48388 | 110.29980 | 12294 ft | 398 kts | 344° |
| 2026-04-28 13:56 | 20.51201 | 110.29543 | 12460 ft | 411 kts | 352° |
| 2026-04-28 13:56 | 20.54101 | 110.29516 | 12623 ft | 423 kts | 359° |
| 2026-04-28 13:56 | 20.57071 | 110.29679 | 12772 ft | 432 kts | 0° |
| 2026-04-28 13:57 | 20.60095 | 110.29884 | 12989 ft | 438 kts | 0° |
| 2026-04-28 13:57 | 20.63160 | 110.30097 | 13333 ft | 440 kts | 0° |
| 2026-04-28 13:57 | 20.66225 | 110.30302 | 13668 ft | 442 kts | 0° |
| 2026-04-28 13:57 | 20.69302 | 110.30504 | 13979 ft | 444 kts | 0° |
| 2026-04-28 13:58 | 20.72418 | 110.30704 | 14300 ft | 446 kts | 0° |
| 2026-04-28 13:58 | 20.75518 | 110.30902 | 14632 ft | 447 kts | 0° |
| 2026-04-28 13:58 | 20.78627 | 110.31100 | 14924 ft | 449 kts | 0° |
| 2026-04-28 13:58 | 20.81790 | 110.31300 | 15215 ft | 451 kts | 0° |
| 2026-04-28 13:59 | 20.84921 | 110.31497 | 15499 ft | 453 kts | 0° |
| 2026-04-28 13:59 | 20.88102 | 110.31699 | 15766 ft | 455 kts | 0° |
| 2026-04-28 13:59 | 20.91263 | 110.31898 | 16027 ft | 457 kts | 0° |
| 2026-04-28 13:59 | 20.94441 | 110.32100 | 16282 ft | 459 kts | 0° |
| 2026-04-28 14:00 | 20.97639 | 110.32303 | 16524 ft | 460 kts | 0° |
| 2026-04-28 14:00 | 21.00846 | 110.32507 | 16750 ft | 463 kts | 0° |
| 2026-04-28 14:00 | 21.04078 | 110.32713 | 16975 ft | 465 kts | 0° |
| 2026-04-28 14:00 | 21.07321 | 110.32894 | 17199 ft | 465 kts | 358° |
| 2026-04-28 14:01 | 21.10500 | 110.32428 | 17375 ft | 460 kts | 340° |
| 2026-04-28 14:01 | 21.13372 | 110.30954 | 17636 ft | 452 kts | 323° |
| 2026-04-28 14:01 | 21.15653 | 110.28741 | 17859 ft | 447 kts | 307° |
| 2026-04-28 14:01 | 21.17308 | 110.25948 | 18071 ft | 444 kts | 295° |
| 2026-04-28 14:02 | 21.18759 | 110.23023 | 18269 ft | 446 kts | 295° |
| 2026-04-28 14:02 | 21.20221 | 110.20081 | 18447 ft | 448 kts | 295° |
| 2026-04-28 14:02 | 21.21689 | 110.17139 | 18679 ft | 449 kts | 295° |
| 2026-04-28 14:02 | 21.23174 | 110.14172 | 18874 ft | 450 kts | 296° |
| 2026-04-28 14:03 | 21.24655 | 110.11218 | 19041 ft | 452 kts | 296° |
| 2026-04-28 14:03 | 21.26125 | 110.08291 | 19203 ft | 453 kts | 296° |
| 2026-04-28 14:03 | 21.27632 | 110.05288 | 19367 ft | 455 kts | 296° |
| 2026-04-28 14:03 | 21.29129 | 110.02308 | 19539 ft | 456 kts | 296° |
| 2026-04-28 14:04 | 21.30646 | 109.99288 | 19727 ft | 457 kts | 296° |
| 2026-04-28 14:04 | 21.32145 | 109.96300 | 19908 ft | 458 kts | 296° |
| 2026-04-28 14:04 | 21.33657 | 109.93284 | 20056 ft | 460 kts | 296° |
| 2026-04-28 14:04 | 21.35164 | 109.90275 | 20204 ft | 461 kts | 296° |
| 2026-04-28 14:05 | 21.36681 | 109.87249 | 20367 ft | 462 kts | 296° |
| 2026-04-28 14:05 | 21.38197 | 109.84220 | 20530 ft | 463 kts | 296° |
| 2026-04-28 14:05 | 21.39724 | 109.81171 | 20691 ft | 464 kts | 296° |
| 2026-04-28 14:05 | 21.41251 | 109.78114 | 20848 ft | 465 kts | 296° |
| 2026-04-28 14:06 | 21.42777 | 109.75060 | 20969 ft | 467 kts | 296° |
| 2026-04-28 14:06 | 21.44312 | 109.71986 | 21112 ft | 468 kts | 296° |
| 2026-04-28 14:06 | 21.45849 | 109.68912 | 21291 ft | 468 kts | 296° |
| 2026-04-28 14:06 | 21.47381 | 109.65839 | 21436 ft | 468 kts | 296° |
| 2026-04-28 14:07 | 21.48923 | 109.62749 | 21563 ft | 469 kts | 296° |
| 2026-04-28 14:07 | 21.50451 | 109.59679 | 21700 ft | 470 kts | 296° |
| 2026-04-28 14:07 | 21.52004 | 109.56558 | 21818 ft | 471 kts | 296° |
| 2026-04-28 14:07 | 21.53555 | 109.53439 | 21946 ft | 472 kts | 296° |
| 2026-04-28 14:08 | 21.55088 | 109.50359 | 22072 ft | 473 kts | 296° |
| 2026-04-28 14:08 | 21.56658 | 109.47256 | 22165 ft | 474 kts | 297° |
| 2026-04-28 14:08 | 21.58389 | 109.44211 | 22284 ft | 476 kts | 301° |
| 2026-04-28 14:08 | 21.60256 | 109.41318 | 22405 ft | 477 kts | 304° |
| 2026-04-28 14:09 | 21.62303 | 109.38510 | 22512 ft | 478 kts | 307° |
| 2026-04-28 14:09 | 21.64432 | 109.35761 | 22623 ft | 479 kts | 308° |
| 2026-04-28 14:09 | 21.66594 | 109.33000 | 22751 ft | 479 kts | 308° |
| 2026-04-28 14:09 | 21.68728 | 109.30276 | 22858 ft | 479 kts | 308° |
| 2026-04-28 14:10 | 21.70862 | 109.27552 | 22947 ft | 480 kts | 307° |
| 2026-04-28 14:10 | 21.73035 | 109.24773 | 23044 ft | 480 kts | 308° |
| 2026-04-28 14:10 | 21.75157 | 109.22056 | 23123 ft | 481 kts | 308° |
| 2026-04-28 14:10 | 21.77317 | 109.19288 | 23227 ft | 481 kts | 307° |
| 2026-04-28 14:11 | 21.79451 | 109.16549 | 23324 ft | 481 kts | 308° |
| 2026-04-28 14:11 | 21.81624 | 109.13759 | 23416 ft | 481 kts | 308° |
| 2026-04-28 14:11 | 21.83763 | 109.11011 | 23490 ft | 481 kts | 308° |
| 2026-04-28 14:11 | 21.85893 | 109.08277 | 23549 ft | 482 kts | 308° |
| 2026-04-28 14:12 | 21.88051 | 109.05521 | 23624 ft | 482 kts | 308° |
| 2026-04-28 14:12 | 21.90223 | 109.02749 | 23699 ft | 483 kts | 308° |
| 2026-04-28 14:12 | 21.92396 | 108.99978 | 23776 ft | 483 kts | 308° |
| 2026-04-28 14:12 | 21.94571 | 108.97198 | 23842 ft | 483 kts | 308° |
| 2026-04-28 14:13 | 21.96705 | 108.94471 | 23893 ft | 484 kts | 308° |
| 2026-04-28 14:13 | 21.98901 | 108.91660 | 23943 ft | 484 kts | 308° |
| 2026-04-28 14:13 | 22.01045 | 108.88914 | 23987 ft | 485 kts | 308° |
| 2026-04-28 14:13 | 22.03223 | 108.86123 | 24044 ft | 485 kts | 308° |
| 2026-04-28 14:14 | 22.05394 | 108.83337 | 24093 ft | 486 kts | 308° |
| 2026-04-28 14:14 | 22.07569 | 108.80546 | 24144 ft | 486 kts | 308° |
| 2026-04-28 14:14 | 22.09755 | 108.77741 | 24201 ft | 486 kts | 308° |
| 2026-04-28 14:14 | 22.11912 | 108.74972 | 24254 ft | 486 kts | 308° |
| 2026-04-28 14:15 | 22.14088 | 108.72188 | 24325 ft | 486 kts | 308° |
| 2026-04-28 14:15 | 22.16274 | 108.69397 | 24389 ft | 486 kts | 308° |
| 2026-04-28 14:15 | 22.18438 | 108.66632 | 24413 ft | 487 kts | 308° |
| 2026-04-28 14:15 | 22.20650 | 108.63806 | 24456 ft | 487 kts | 308° |
| 2026-04-28 14:16 | 22.22807 | 108.61049 | 24525 ft | 486 kts | 308° |
| 2026-04-28 14:16 | 22.25010 | 108.58229 | 24607 ft | 486 kts | 308° |
| 2026-04-28 14:16 | 22.27185 | 108.55440 | 24659 ft | 486 kts | 308° |
| 2026-04-28 14:16 | 22.29349 | 108.52665 | 24699 ft | 486 kts | 308° |
| 2026-04-28 14:17 | 22.31518 | 108.49883 | 24761 ft | 486 kts | 308° |
| 2026-04-28 14:17 | 22.33678 | 108.47109 | 24829 ft | 486 kts | 308° |
| 2026-04-28 14:17 | 22.35874 | 108.44288 | 24879 ft | 486 kts | 308° |
| 2026-04-28 14:17 | 22.38025 | 108.41524 | 24935 ft | 486 kts | 308° |
| 2026-04-28 14:18 | 22.40195 | 108.38734 | 25006 ft | 485 kts | 308° |
| 2026-04-28 14:18 | 22.42371 | 108.35937 | 25077 ft | 485 kts | 308° |
| 2026-04-28 14:18 | 22.44561 | 108.33118 | 25149 ft | 485 kts | 308° |
| 2026-04-28 14:18 | 22.46712 | 108.30344 | 25231 ft | 485 kts | 308° |
| 2026-04-28 14:19 | 22.48866 | 108.27569 | 25294 ft | 485 kts | 308° |
| 2026-04-28 14:19 | 22.51034 | 108.24773 | 25357 ft | 485 kts | 308° |
| 2026-04-28 14:19 | 22.53190 | 108.21991 | 25454 ft | 484 kts | 308° |
| 2026-04-28 14:19 | 22.55379 | 108.19166 | 25532 ft | 484 kts | 308° |
| 2026-04-28 14:20 | 22.57511 | 108.16414 | 25585 ft | 485 kts | 308° |
| 2026-04-28 14:20 | 22.59766 | 108.13681 | 25664 ft | 485 kts | 311° |
| 2026-04-28 14:20 | 22.62090 | 108.11007 | 25735 ft | 485 kts | 311° |
| 2026-04-28 14:20 | 22.64389 | 108.08382 | 25820 ft | 485 kts | 311° |
| 2026-04-28 14:21 | 22.66711 | 108.05734 | 25892 ft | 485 kts | 311° |
| 2026-04-28 14:21 | 22.69047 | 108.03069 | 25968 ft | 484 kts | 311° |
| 2026-04-28 14:21 | 22.71365 | 108.00421 | 26033 ft | 485 kts | 311° |
| 2026-04-28 14:21 | 22.73653 | 107.97806 | 26100 ft | 485 kts | 311° |
| 2026-04-28 14:22 | 22.75984 | 107.95137 | 26179 ft | 484 kts | 311° |
| 2026-04-28 14:22 | 22.78286 | 107.92501 | 26254 ft | 484 kts | 311° |
| 2026-04-28 14:22 | 22.80591 | 107.89859 | 26338 ft | 484 kts | 311° |
| 2026-04-28 14:22 | 22.82901 | 107.87210 | 26407 ft | 484 kts | 311° |
| 2026-04-28 14:23 | 22.85234 | 107.84534 | 26501 ft | 483 kts | 311° |
| 2026-04-28 14:23 | 22.87525 | 107.81904 | 26826 ft | 477 kts | 311° |
| 2026-04-28 14:23 | 22.89757 | 107.79340 | 27423 ft | 466 kts | 312° |
| 2026-04-28 14:23 | 22.91960 | 107.76807 | 28065 ft | 455 kts | 311° |
| 2026-04-28 14:24 | 22.94096 | 107.74349 | 28707 ft | 444 kts | 311° |
| 2026-04-28 14:24 | 22.96195 | 107.71940 | 29262 ft | 437 kts | 313° |
| 2026-04-28 14:24 | 22.98285 | 107.69541 | 29479 ft | 438 kts | 313° |
| 2026-04-28 14:24 | 23.00610 | 107.67406 | 29563 ft | 443 kts | 323° |
| 2026-04-28 14:25 | 23.03289 | 107.65787 | 29756 ft | 446 kts | 334° |
| 2026-04-28 14:25 | 23.06269 | 107.64705 | 29945 ft | 450 kts | 345° |
| 2026-04-28 14:25 | 23.09366 | 107.64256 | 30193 ft | 453 kts | 355° |
| 2026-04-28 14:25 | 23.12520 | 107.64236 | 30474 ft | 453 kts | 358° |
| 2026-04-28 14:26 | 23.15677 | 107.64284 | 30721 ft | 453 kts | 359° |
| 2026-04-28 14:26 | 23.18828 | 107.64345 | 30943 ft | 453 kts | 359° |
| 2026-04-28 14:26 | 23.21984 | 107.64402 | 31160 ft | 454 kts | 359° |
| 2026-04-28 14:26 | 23.25182 | 107.64455 | 31390 ft | 454 kts | 358° |
| 2026-04-28 14:27 | 23.28314 | 107.64505 | 31623 ft | 455 kts | 358° |
| 2026-04-28 14:27 | 23.31511 | 107.64552 | 31872 ft | 454 kts | 358° |
| 2026-04-28 14:27 | 23.34656 | 107.64596 | 32116 ft | 454 kts | 358° |
| 2026-04-28 14:27 | 23.37822 | 107.64641 | 32336 ft | 455 kts | 358° |
| 2026-04-28 14:28 | 23.40970 | 107.64683 | 32511 ft | 456 kts | 358° |
| 2026-04-28 14:28 | 23.44154 | 107.64726 | 32672 ft | 458 kts | 358° |
| 2026-04-28 14:28 | 23.47381 | 107.64771 | 32847 ft | 459 kts | 358° |
| 2026-04-28 14:28 | 23.50541 | 107.64815 | 33044 ft | 460 kts | 358° |
| 2026-04-28 14:29 | 23.53750 | 107.64858 | 33238 ft | 461 kts | 358° |
| 2026-04-28 14:29 | 23.56980 | 107.64902 | 33429 ft | 462 kts | 358° |
| 2026-04-28 14:29 | 23.60176 | 107.64947 | 33614 ft | 462 kts | 358° |
| 2026-04-28 14:29 | 23.63415 | 107.64991 | 33786 ft | 464 kts | 358° |
| 2026-04-28 14:30 | 23.66633 | 107.65035 | 33961 ft | 465 kts | 358° |
| 2026-04-28 14:30 | 23.69879 | 107.65077 | 34008 ft | 466 kts | 358° |
| 2026-04-28 14:30 | 23.76403 | 107.65166 | 34021 ft | 467 kts | 358° |
| 2026-04-28 14:31 | 23.82884 | 107.65254 | 34024 ft | 467 kts | 358° |
| 2026-04-28 14:31 | 23.89417 | 107.65345 | 34031 ft | 468 kts | 358° |
| 2026-04-28 14:32 | 23.95950 | 107.65434 | 34039 ft | 468 kts | 358° |
| 2026-04-28 14:32 | 24.02451 | 107.65522 | 34041 ft | 469 kts | 358° |
| 2026-04-28 14:33 | 24.08959 | 107.65610 | 34042 ft | 468 kts | 358° |
| 2026-04-28 14:33 | 24.15482 | 107.65703 | 34049 ft | 468 kts | 357° |
| 2026-04-28 14:34 | 24.25260 | 107.65836 | 34065 ft | 468 kts | 357° |
| 2026-04-28 14:35 | 24.31801 | 107.65926 | 34062 ft | 467 kts | 357° |
| 2026-04-28 14:35 | 24.38279 | 107.66017 | 34060 ft | 466 kts | 357° |
| 2026-04-28 14:36 | 24.44759 | 107.66107 | 34071 ft | 465 kts | 356° |
| 2026-04-28 14:36 | 24.51228 | 107.66194 | 34065 ft | 464 kts | 356° |
| 2026-04-28 14:37 | 24.57689 | 107.66283 | 34062 ft | 464 kts | 356° |
| 2026-04-28 14:37 | 24.64186 | 107.66373 | 34070 ft | 465 kts | 356° |
| 2026-04-28 14:38 | 24.70616 | 107.66463 | 34069 ft | 463 kts | 356° |
| 2026-04-28 14:38 | 24.77071 | 107.66554 | 34075 ft | 462 kts | 356° |
| 2026-04-28 14:39 | 24.83481 | 107.66642 | 34076 ft | 462 kts | 356° |
| 2026-04-28 14:39 | 24.89905 | 107.66730 | 34088 ft | 461 kts | 356° |
| 2026-04-28 14:40 | 24.96332 | 107.66821 | 34097 ft | 459 kts | 355° |
| 2026-04-28 14:40 | 25.02723 | 107.66909 | 34100 ft | 459 kts | 355° |
| 2026-04-28 14:41 | 25.09113 | 107.66997 | 34105 ft | 459 kts | 355° |
| 2026-04-28 14:41 | 25.15493 | 107.67084 | 34101 ft | 459 kts | 355° |
| 2026-04-28 14:42 | 25.21872 | 107.67174 | 34087 ft | 460 kts | 355° |
| 2026-04-28 14:42 | 25.28280 | 107.67263 | 34103 ft | 461 kts | 355° |
| 2026-04-28 14:43 | 25.34712 | 107.67353 | 34116 ft | 461 kts | 355° |
| 2026-04-28 14:43 | 25.41127 | 107.67446 | 34123 ft | 461 kts | 355° |
| 2026-04-28 14:44 | 25.47563 | 107.67533 | 34132 ft | 461 kts | 355° |
| 2026-04-28 14:44 | 25.53974 | 107.67625 | 34135 ft | 464 kts | 355° |
| 2026-04-28 14:45 | 25.60452 | 107.67716 | 34140 ft | 463 kts | 355° |
| 2026-04-28 14:45 | 25.66774 | 107.67072 | 34151 ft | 453 kts | 342° |
| 2026-04-28 14:46 | 25.72620 | 107.64791 | 34156 ft | 442 kts | 328° |
| 2026-04-28 14:46 | 25.77733 | 107.61083 | 34162 ft | 433 kts | 315° |
| 2026-04-28 14:47 | 25.82071 | 107.56527 | 34173 ft | 430 kts | 310° |
| 2026-04-28 14:47 | 25.86312 | 107.51892 | 34180 ft | 429 kts | 310° |
| 2026-04-28 14:48 | 25.90553 | 107.47265 | 34180 ft | 429 kts | 311° |
| 2026-04-28 14:48 | 25.94813 | 107.42622 | 34180 ft | 429 kts | 311° |
| 2026-04-28 14:49 | 25.99080 | 107.37969 | 34188 ft | 430 kts | 310° |
| 2026-04-28 14:49 | 26.03353 | 107.33311 | 34189 ft | 428 kts | 310° |
| 2026-04-28 14:50 | 26.07595 | 107.28676 | 34200 ft | 429 kts | 310° |
| 2026-04-28 14:50 | 26.11824 | 107.24052 | 34197 ft | 429 kts | 310° |
| 2026-04-28 14:51 | 26.16084 | 107.19391 | 34210 ft | 429 kts | 310° |
| 2026-04-28 14:51 | 26.20331 | 107.14735 | 34216 ft | 429 kts | 310° |
| 2026-04-28 14:52 | 26.24587 | 107.10068 | 34224 ft | 429 kts | 310° |
| 2026-04-28 14:52 | 26.28823 | 107.05414 | 34230 ft | 429 kts | 310° |
| 2026-04-28 14:53 | 26.33070 | 107.00745 | 34234 ft | 428 kts | 310° |
| 2026-04-28 14:53 | 26.37283 | 106.96111 | 34241 ft | 428 kts | 310° |
| 2026-04-28 14:54 | 26.41517 | 106.91440 | 34246 ft | 427 kts | 310° |
| 2026-04-28 14:54 | 26.45759 | 106.86799 | 34242 ft | 428 kts | 313° |
| 2026-04-28 14:55 | 26.50605 | 106.82883 | 34243 ft | 437 kts | 324° |
| 2026-04-28 14:55 | 26.56249 | 106.80167 | 34249 ft | 448 kts | 337° |
| 2026-04-28 14:56 | 26.62476 | 106.78889 | 34247 ft | 460 kts | 349° |
| 2026-04-28 14:56 | 26.68909 | 106.78517 | 34257 ft | 460 kts | 350° |
| 2026-04-28 14:57 | 26.75135 | 106.77321 | 34253 ft | 451 kts | 338° |
| 2026-04-28 14:57 | 26.80848 | 106.74742 | 34256 ft | 440 kts | 326° |
| 2026-04-28 14:58 | 26.85881 | 106.70974 | 34258 ft | 431 kts | 315° |
| 2026-04-28 14:58 | 26.90396 | 106.66597 | 34257 ft | 429 kts | 313° |
| 2026-04-28 14:59 | 26.94869 | 106.62189 | 34264 ft | 429 kts | 313° |
| 2026-04-28 14:59 | 26.99342 | 106.57791 | 34270 ft | 429 kts | 313° |
| 2026-04-28 15:00 | 27.03845 | 106.53363 | 34268 ft | 431 kts | 313° |
| 2026-04-28 15:00 | 27.08340 | 106.48940 | 34272 ft | 431 kts | 313° |
| 2026-04-28 15:01 | 27.12846 | 106.44500 | 34267 ft | 430 kts | 313° |
| 2026-04-28 15:01 | 27.17349 | 106.40060 | 34274 ft | 431 kts | 313° |
| 2026-04-28 15:02 | 27.21859 | 106.35627 | 34271 ft | 431 kts | 314° |
| 2026-04-28 15:02 | 27.26405 | 106.31214 | 34281 ft | 431 kts | 313° |
| 2026-04-28 15:03 | 27.30956 | 106.26794 | 34291 ft | 432 kts | 313° |
| 2026-04-28 15:03 | 27.35478 | 106.22387 | 34292 ft | 431 kts | 313° |
| 2026-04-28 15:04 | 27.40019 | 106.17954 | 34292 ft | 431 kts | 313° |
| 2026-04-28 15:04 | 27.44553 | 106.13524 | 34292 ft | 432 kts | 313° |
| 2026-04-28 15:05 | 27.49106 | 106.09069 | 34294 ft | 432 kts | 313° |
| 2026-04-28 15:05 | 27.53634 | 106.04633 | 34298 ft | 432 kts | 313° |
| 2026-04-28 15:06 | 27.58155 | 106.00199 | 34287 ft | 433 kts | 313° |
| 2026-04-28 15:06 | 27.62696 | 105.95740 | 34293 ft | 433 kts | 313° |
| 2026-04-28 15:07 | 27.67172 | 105.91216 | 34292 ft | 430 kts | 309° |
| 2026-04-28 15:07 | 27.71007 | 105.86139 | 34299 ft | 424 kts | 300° |
| 2026-04-28 15:08 | 27.74023 | 105.80511 | 34307 ft | 418 kts | 292° |
| 2026-04-28 15:08 | 27.76200 | 105.74464 | 34302 ft | 416 kts | 284° |
| 2026-04-28 15:09 | 27.77949 | 105.68278 | 34302 ft | 415 kts | 284° |
| 2026-04-28 15:09 | 27.79740 | 105.62091 | 34303 ft | 415 kts | 287° |
| 2026-04-28 15:10 | 27.81938 | 105.56072 | 34308 ft | 417 kts | 289° |
| 2026-04-28 15:10 | 27.84252 | 105.50086 | 34311 ft | 418 kts | 290° |
| 2026-04-28 15:11 | 27.87083 | 105.44313 | 34303 ft | 425 kts | 300° |
| 2026-04-28 15:11 | 27.90991 | 105.39211 | 34315 ft | 435 kts | 311° |
| 2026-04-28 15:12 | 27.95863 | 105.35066 | 34314 ft | 444 kts | 323° |
| 2026-04-28 15:12 | 28.01399 | 105.31857 | 34310 ft | 449 kts | 328° |
| 2026-04-28 15:13 | 28.07013 | 105.28809 | 34310 ft | 448 kts | 328° |
| 2026-04-28 15:13 | 28.12651 | 105.25736 | 34304 ft | 447 kts | 328° |
| 2026-04-28 15:14 | 28.18255 | 105.22663 | 34299 ft | 448 kts | 328° |
| 2026-04-28 15:14 | 28.23870 | 105.19579 | 34296 ft | 449 kts | 328° |
| 2026-04-28 15:15 | 28.29501 | 105.16481 | 34297 ft | 450 kts | 328° |
| 2026-04-28 15:15 | 28.35140 | 105.13366 | 34296 ft | 450 kts | 327° |
| 2026-04-28 15:16 | 28.40523 | 105.09819 | 34299 ft | 446 kts | 320° |
| 2026-04-28 15:16 | 28.45451 | 105.05614 | 34296 ft | 440 kts | 313° |
| 2026-04-28 15:17 | 28.49859 | 105.00824 | 34294 ft | 436 kts | 307° |
| 2026-04-28 15:17 | 28.53911 | 104.95747 | 34294 ft | 436 kts | 306° |
| 2026-04-28 15:18 | 28.57954 | 104.90627 | 34290 ft | 435 kts | 306° |
| 2026-04-28 15:18 | 28.61997 | 104.85516 | 34292 ft | 435 kts | 306° |
| 2026-04-28 15:19 | 28.66035 | 104.80407 | 34289 ft | 435 kts | 306° |
| 2026-04-28 15:19 | 28.70078 | 104.75288 | 34288 ft | 435 kts | 306° |
| 2026-04-28 15:20 | 28.74119 | 104.70163 | 34289 ft | 435 kts | 306° |
| 2026-04-28 15:20 | 28.78161 | 104.65031 | 34292 ft | 436 kts | 306° |
| 2026-04-28 15:21 | 28.82311 | 104.60001 | 34290 ft | 439 kts | 310° |
| 2026-04-28 15:21 | 28.86936 | 104.55396 | 34289 ft | 442 kts | 316° |
| 2026-04-28 15:22 | 28.91965 | 104.51363 | 34288 ft | 447 kts | 322° |
| 2026-04-28 15:22 | 28.97265 | 104.47578 | 34289 ft | 447 kts | 322° |
| 2026-04-28 15:23 | 29.02541 | 104.43826 | 34289 ft | 447 kts | 322° |
| 2026-04-28 15:23 | 29.07813 | 104.40069 | 34294 ft | 447 kts | 322° |
| 2026-04-28 15:24 | 29.13093 | 104.36296 | 34290 ft | 448 kts | 322° |
| 2026-04-28 15:24 | 29.18345 | 104.32539 | 34291 ft | 448 kts | 321° |
| 2026-04-28 15:25 | 29.23612 | 104.28762 | 34292 ft | 447 kts | 321° |
| 2026-04-28 15:25 | 29.28823 | 104.24900 | 34296 ft | 444 kts | 319° |
| 2026-04-28 15:26 | 29.33899 | 104.20831 | 33866 ft | 448 kts | 319° |
| 2026-04-28 15:26 | 29.36465 | 104.18761 | 32923 ft | 455 kts | 319° |
| 2026-04-28 15:26 | 29.39062 | 104.16663 | 32044 ft | 458 kts | 319° |
| 2026-04-28 15:26 | 29.41669 | 104.14562 | 31169 ft | 460 kts | 319° |
| 2026-04-28 15:27 | 29.44288 | 104.12454 | 30426 ft | 459 kts | 320° |
| 2026-04-28 15:27 | 29.46881 | 104.10369 | 29898 ft | 453 kts | 320° |
| 2026-04-28 15:27 | 29.49403 | 104.08340 | 29496 ft | 445 kts | 320° |
| 2026-04-28 15:27 | 29.51934 | 104.06302 | 29078 ft | 437 kts | 320° |
| 2026-04-28 15:28 | 29.54378 | 104.04332 | 28674 ft | 430 kts | 320° |
| 2026-04-28 15:28 | 29.56823 | 104.02357 | 28249 ft | 423 kts | 320° |
| 2026-04-28 15:28 | 29.59198 | 104.00436 | 27815 ft | 418 kts | 320° |
| 2026-04-28 15:28 | 29.61547 | 103.98534 | 27405 ft | 412 kts | 320° |
| 2026-04-28 15:29 | 29.63864 | 103.96659 | 26998 ft | 406 kts | 321° |
| 2026-04-28 15:29 | 29.66157 | 103.94799 | 26590 ft | 400 kts | 321° |
| 2026-04-28 15:29 | 29.68437 | 103.92954 | 26198 ft | 394 kts | 321° |
| 2026-04-28 15:29 | 29.70640 | 103.91168 | 25807 ft | 389 kts | 321° |
| 2026-04-28 15:30 | 29.72844 | 103.89379 | 25417 ft | 383 kts | 321° |
| 2026-04-28 15:30 | 29.75010 | 103.87622 | 25019 ft | 378 kts | 322° |
| 2026-04-28 15:30 | 29.77135 | 103.85897 | 24636 ft | 373 kts | 322° |
| 2026-04-28 15:30 | 29.79246 | 103.84184 | 24258 ft | 368 kts | 322° |
| 2026-04-28 15:31 | 29.81308 | 103.82508 | 23886 ft | 363 kts | 322° |
| 2026-04-28 15:31 | 29.83361 | 103.80840 | 23493 ft | 359 kts | 322° |
| 2026-04-28 15:31 | 29.85397 | 103.79182 | 23108 ft | 355 kts | 322° |
| 2026-04-28 15:31 | 29.87389 | 103.77560 | 22745 ft | 350 kts | 323° |
| 2026-04-28 15:32 | 29.89378 | 103.75941 | 22369 ft | 347 kts | 323° |
| 2026-04-28 15:32 | 29.91333 | 103.74348 | 21977 ft | 343 kts | 323° |
| 2026-04-28 15:32 | 29.93267 | 103.72770 | 21587 ft | 340 kts | 323° |
| 2026-04-28 15:32 | 29.95170 | 103.71217 | 21193 ft | 338 kts | 323° |
| 2026-04-28 15:33 | 29.97105 | 103.69640 | 20788 ft | 335 kts | 323° |
| 2026-04-28 15:33 | 29.98969 | 103.68117 | 20413 ft | 332 kts | 324° |
| 2026-04-28 15:33 | 30.00858 | 103.66572 | 20038 ft | 329 kts | 324° |
| 2026-04-28 15:33 | 30.02712 | 103.65057 | 19660 ft | 325 kts | 324° |
| 2026-04-28 15:34 | 30.04545 | 103.63558 | 19287 ft | 322 kts | 324° |
| 2026-04-28 15:34 | 30.06369 | 103.62079 | 18907 ft | 320 kts | 327° |
| 2026-04-28 15:34 | 30.08375 | 103.61040 | 18495 ft | 318 kts | 346° |
| 2026-04-28 15:34 | 30.10576 | 103.60800 | 18104 ft | 316 kts | 3° |
| 2026-04-28 15:35 | 30.12711 | 103.61336 | 17720 ft | 315 kts | 19° |
| 2026-04-28 15:35 | 30.16766 | 103.63215 | 17006 ft | 311 kts | 21° |
| 2026-04-28 15:35 | 30.18754 | 103.64154 | 16628 ft | 310 kts | 21° |
| 2026-04-28 15:36 | 30.20750 | 103.65092 | 16219 ft | 308 kts | 21° |
| 2026-04-28 15:36 | 30.22713 | 103.66007 | 15866 ft | 305 kts | 21° |
| 2026-04-28 15:36 | 30.24685 | 103.66924 | 15505 ft | 303 kts | 21° |
| 2026-04-28 15:36 | 30.26640 | 103.67833 | 15124 ft | 302 kts | 21° |
| 2026-04-28 15:37 | 30.28570 | 103.68730 | 14755 ft | 299 kts | 21° |
| 2026-04-28 15:37 | 30.30484 | 103.69619 | 14395 ft | 297 kts | 21° |
| 2026-04-28 15:37 | 30.32412 | 103.70509 | 14061 ft | 295 kts | 21° |
| 2026-04-28 15:37 | 30.34303 | 103.71379 | 13681 ft | 293 kts | 21° |
| 2026-04-28 15:38 | 30.36206 | 103.72256 | 13312 ft | 291 kts | 21° |
| 2026-04-28 15:38 | 30.38088 | 103.73121 | 12938 ft | 289 kts | 22° |
| 2026-04-28 15:38 | 30.39941 | 103.73975 | 12582 ft | 287 kts | 22° |
| 2026-04-28 15:38 | 30.41779 | 103.74822 | 12234 ft | 284 kts | 22° |
| 2026-04-28 15:39 | 30.43608 | 103.75666 | 11923 ft | 280 kts | 23° |
| 2026-04-28 15:39 | 30.45420 | 103.76503 | 11579 ft | 277 kts | 23° |
| 2026-04-28 15:39 | 30.47195 | 103.77325 | 11266 ft | 274 kts | 23° |
| 2026-04-28 15:39 | 30.48954 | 103.78140 | 10928 ft | 272 kts | 24° |
| 2026-04-28 15:40 | 30.50714 | 103.78954 | 10600 ft | 269 kts | 24° |
| 2026-04-28 15:40 | 30.52410 | 103.79739 | 10444 ft | 260 kts | 24° |
| 2026-04-28 15:40 | 30.54067 | 103.80507 | 10341 ft | 249 kts | 24° |
| 2026-04-28 15:40 | 30.55658 | 103.81245 | 10230 ft | 247 kts | 24° |
| 2026-04-28 15:41 | 30.57277 | 103.81998 | 10103 ft | 248 kts | 24° |
| 2026-04-28 15:41 | 30.58865 | 103.82735 | 9987 ft | 250 kts | 25° |
| 2026-04-28 15:41 | 30.60481 | 103.83485 | 9640 ft | 249 kts | 25° |
| 2026-04-28 15:41 | 30.62089 | 103.84232 | 9315 ft | 247 kts | 24° |
| 2026-04-28 15:42 | 30.63678 | 103.84972 | 8980 ft | 245 kts | 24° |
| 2026-04-28 15:42 | 30.65260 | 103.85710 | 8662 ft | 242 kts | 24° |
| 2026-04-28 15:42 | 30.66825 | 103.86443 | 8354 ft | 243 kts | 24° |
| 2026-04-28 15:42 | 30.68404 | 103.87182 | 8046 ft | 242 kts | 24° |
| 2026-04-28 15:43 | 30.69957 | 103.87909 | 7737 ft | 242 kts | 24° |
| 2026-04-28 15:43 | 30.71514 | 103.88638 | 7413 ft | 240 kts | 24° |
| 2026-04-28 15:43 | 30.73055 | 103.89358 | 7089 ft | 240 kts | 24° |
| 2026-04-28 15:43 | 30.74607 | 103.90085 | 6758 ft | 242 kts | 24° |
| 2026-04-28 15:44 | 30.76186 | 103.90825 | 6435 ft | 242 kts | 24° |
| 2026-04-28 15:44 | 30.77753 | 103.91560 | 6141 ft | 243 kts | 24° |
| 2026-04-28 15:44 | 30.79322 | 103.92295 | 5886 ft | 243 kts | 23° |
| 2026-04-28 15:44 | 30.80862 | 103.93026 | 5784 ft | 241 kts | 26° |
| 2026-04-28 15:45 | 30.82167 | 103.94223 | 5658 ft | 239 kts | 59° |
| 2026-04-28 15:45 | 30.82608 | 103.96075 | 5410 ft | 243 kts | 92° |
| 2026-04-28 15:45 | 30.82159 | 103.97938 | 5083 ft | 242 kts | 113° |
| 2026-04-28 15:45 | 30.81477 | 103.99745 | 4992 ft | 243 kts | 111° |
| 2026-04-28 15:46 | 30.80827 | 104.01561 | 4995 ft | 244 kts | 114° |
| 2026-04-28 15:46 | 30.79762 | 104.03095 | 4966 ft | 246 kts | 144° |
| 2026-04-28 15:46 | 30.78183 | 104.03788 | 4964 ft | 250 kts | 175° |
| 2026-04-28 15:46 | 30.76450 | 104.03514 | 4974 ft | 251 kts | 198° |
| 2026-04-28 15:47 | 30.74838 | 104.02751 | 4856 ft | 251 kts | 204° |
| 2026-04-28 15:47 | 30.73254 | 104.01914 | 4563 ft | 250 kts | 204° |
| 2026-04-28 15:47 | 30.71643 | 104.01115 | 4233 ft | 250 kts | 203° |
| 2026-04-28 15:47 | 30.70037 | 104.00362 | 3902 ft | 248 kts | 202° |
| 2026-04-28 15:48 | 30.68430 | 103.99623 | 3584 ft | 246 kts | 202° |
| 2026-04-28 15:48 | 30.66902 | 103.98917 | 3343 ft | 225 kts | 203° |
| 2026-04-28 15:48 | 30.65527 | 103.98277 | 3047 ft | 203 kts | 203° |
| 2026-04-28 15:48 | 30.64265 | 103.97690 | 2747 ft | 189 kts | 204° |
| 2026-04-28 15:49 | 30.63084 | 103.97140 | 2483 ft | 173 kts | 203° |
| 2026-04-28 15:49 | 30.62022 | 103.96645 | 2251 ft | 156 kts | 203° |
| 2026-04-28 15:49 | 30.61066 | 103.96196 | 2041 ft | 144 kts | 203° |
| 2026-04-28 15:49 | 30.60134 | 103.95760 | 1885 ft | 144 kts | 202° |
| 2026-04-28 15:50 | 30.59209 | 103.95334 | 1702 ft | 142 kts | 203° |
| 2026-04-28 15:50 | 30.58305 | 103.94907 | 1690 ft | 128 kts | 202° |
| 2026-04-28 15:50 | 30.57624 | 103.94594 | 1690 ft | 80 kts | 202° |
| 2026-04-28 15:50 | 30.57279 | 103.94451 | 1690 ft | 27 kts | 186° |
| 2026-04-28 15:51 | 30.57128 | 103.94449 | 1690 ft | 18 kts | 172° |
| 2026-04-28 15:51 | 30.57002 | 103.94471 | 1689 ft | 18 kts | 172° |
| 2026-04-28 15:51 | 30.56880 | 103.94486 | 1690 ft | 16 kts | 146° |
| 2026-04-28 15:51 | 30.56903 | 103.94580 | 1690 ft | 15 kts | 16° |
| 2026-04-28 15:52 | 30.57006 | 103.94614 | 1690 ft | 15 kts | 17° |
| 2026-04-28 15:52 | 30.57106 | 103.94656 | 1689 ft | 15 kts | 22° |
| 2026-04-28 15:52 | 30.57204 | 103.94702 | 1690 ft | 15 kts | 22° |
| 2026-04-28 15:52 | 30.57226 | 103.94801 | 1690 ft | 14 kts | 111° |
| 2026-04-28 15:53 | 30.57189 | 103.94907 | 1689 ft | 14 kts | 112° |
| 2026-04-28 15:53 | 30.57151 | 103.95016 | 1690 ft | 14 kts | 112° |
| 2026-04-28 15:53 | 30.57173 | 103.95106 | 1690 ft | 13 kts | 24° |
| 2026-04-28 15:53 | 30.57230 | 103.95165 | 1690 ft | 6 kts | 56° |
| 2026-04-28 15:54 | 30.57232 | 103.95170 | 1690 ft | 0 kts | 56° |